createdAt,value
2023-12-09T00:00:58.223Z,32.65
2023-12-09T00:03:25.818Z,31.35
2023-12-09T00:05:53.532Z,36.45
2023-12-09T00:08:21.073Z,34.35
2023-12-09T00:10:48.650Z,38.97
2023-12-09T00:13:16.117Z,34.78
2023-12-09T00:15:44.961Z,35.78
2023-12-09T00:18:12.644Z,33.05
2023-12-09T00:20:40.210Z,30.48
2023-12-09T00:23:08.817Z,31.95
2023-12-09T00:25:36.345Z,36.05
2023-12-09T00:28:03.995Z,37.55
2023-12-09T00:30:31.492Z,32.53
2023-12-09T00:33:00.505Z,37.83
2023-12-09T00:35:28.095Z,30.63
2023-12-09T00:37:55.552Z,34.30
2023-12-09T00:40:23.572Z,38.40
2023-12-09T00:42:51.043Z,33.70
2023-12-09T00:45:18.521Z,36.67
2023-12-09T00:47:46.193Z,32.08
2023-12-09T00:50:15.108Z,36.10
2023-12-09T00:52:42.637Z,36.00
2023-12-09T00:55:10.749Z,28.45
2023-12-09T00:57:38.292Z,37.65
2023-12-09T01:00:06.530Z,28.63
2023-12-09T01:02:34.120Z,38.25
2023-12-09T01:05:01.659Z,26.48
2023-12-09T01:07:30.543Z,38.85
2023-12-09T01:09:58.056Z,38.15
2023-12-09T01:12:25.823Z,38.05
2023-12-09T01:14:53.435Z,37.97
2023-12-09T01:17:20.940Z,41.08
2023-12-09T01:19:48.450Z,33.97
2023-12-09T01:22:16.078Z,39.40
2023-12-09T01:24:45.014Z,40.40
2023-12-09T01:27:12.555Z,27.10
2023-12-09T01:29:40.102Z,22.98
2023-12-09T01:32:07.896Z,33.42
2023-12-09T01:34:37.905Z,30.20
2023-12-09T01:37:05.398Z,26.38
2023-12-09T01:39:32.883Z,36.65
2023-12-09T01:42:04.038Z,43.25
2023-12-09T01:44:31.564Z,28.85
2023-12-09T01:46:59.110Z,32.58
2023-12-09T01:49:26.758Z,27.50
2023-12-09T01:51:54.680Z,32.28
2023-12-09T01:54:22.553Z,31.92
2023-12-09T01:56:50.150Z,31.42
2023-12-09T01:59:19.368Z,30.75
2023-12-09T02:01:46.225Z,40.08
2023-12-09T02:04:14.727Z,33.55
2023-12-09T02:06:42.476Z,34.00
2023-12-09T02:09:11.785Z,32.83
2023-12-09T02:11:41.237Z,27.75
2023-12-09T02:14:09.823Z,20.95
2023-12-09T02:16:53.380Z,31.13
2023-12-09T02:19:20.958Z,24.13
2023-12-09T02:22:06.586Z,23.45
2023-12-09T02:24:35.920Z,29.67
2023-12-09T02:27:06.616Z,25.20
2023-12-09T02:29:36.032Z,29.55
2023-12-09T02:32:05.980Z,34.42
2023-12-09T02:34:34.206Z,22.63
2023-12-09T02:37:01.986Z,27.83
2023-12-09T02:39:29.507Z,30.17
2023-12-09T02:41:58.465Z,23.73
2023-12-09T02:44:26.119Z,26.38
2023-12-09T02:46:56.358Z,23.90
2023-12-09T02:49:24.046Z,23.80
2023-12-09T02:51:51.657Z,25.15
2023-12-09T02:54:19.640Z,31.30
2023-12-09T02:56:47.085Z,27.75
2023-12-09T02:59:15.885Z,29.35
2023-12-09T03:01:43.328Z,23.38
2023-12-09T03:04:11.262Z,29.35
2023-12-09T03:06:38.792Z,27.92
2023-12-09T03:09:05.345Z,26.45
2023-12-09T03:11:32.911Z,29.83
2023-12-09T03:14:00.370Z,32.75
2023-12-09T03:16:29.187Z,26.77
2023-12-09T03:18:56.747Z,35.05
2023-12-09T03:21:24.412Z,32.72
2023-12-09T03:23:51.944Z,32.33
2023-12-09T03:26:20.040Z,34.55
2023-12-09T03:28:47.590Z,34.13
2023-12-09T03:31:16.189Z,32.97
2023-12-09T03:33:45.370Z,32.72
2023-12-09T03:36:14.667Z,38.10
2023-12-09T03:38:42.490Z,30.63
2023-12-09T03:41:10.692Z,36.88
2023-12-09T03:43:38.368Z,38.55
2023-12-09T03:46:06.255Z,33.63
2023-12-09T03:48:34.161Z,41.65
2023-12-09T03:51:03.540Z,34.45
2023-12-09T03:53:31.062Z,37.08
2023-12-09T03:55:58.707Z,40.08
2023-12-09T03:58:26.200Z,38.92
2023-12-09T04:00:54.061Z,35.38
2023-12-09T04:03:21.725Z,34.67
2023-12-09T04:05:49.244Z,34.65
2023-12-09T04:08:18.020Z,39.00
2023-12-09T04:10:45.629Z,37.35
2023-12-09T04:13:13.140Z,33.67
2023-12-09T04:15:40.662Z,37.58
2023-12-09T04:18:08.634Z,34.40
2023-12-09T04:20:36.274Z,29.63
2023-12-09T04:23:05.314Z,34.63
2023-12-09T04:25:34.097Z,33.97
2023-12-09T04:28:02.346Z,35.30
2023-12-09T04:30:30.269Z,36.88
2023-12-09T04:32:57.854Z,40.38
2023-12-09T04:35:25.395Z,40.40
2023-12-09T04:37:52.858Z,41.20
2023-12-09T04:40:20.346Z,34.58
2023-12-09T04:42:49.248Z,36.58
2023-12-09T04:45:16.763Z,35.70
2023-12-09T04:47:44.369Z,38.45
2023-12-09T04:50:12.306Z,38.38
2023-12-09T04:52:39.932Z,36.50
2023-12-09T04:55:09.349Z,42.25
2023-12-09T04:57:37.016Z,35.92
2023-12-09T05:00:07.198Z,29.58
2023-12-09T05:02:34.771Z,37.33
2023-12-09T05:05:02.652Z,29.33
2023-12-09T05:07:30.126Z,36.95
2023-12-09T05:09:57.646Z,29.63
2023-12-09T05:12:25.444Z,35.60
2023-12-09T05:14:53.072Z,30.45
2023-12-09T05:17:21.937Z,32.25
2023-12-09T05:19:49.533Z,28.05
2023-12-09T05:22:17.031Z,25.65
2023-12-09T05:24:44.804Z,26.15
2023-12-09T05:27:12.475Z,28.40
2023-12-09T05:29:43.461Z,28.77
2023-12-09T05:32:11.645Z,29.92
2023-12-09T05:34:40.743Z,34.38
2023-12-09T05:37:08.309Z,31.30
2023-12-09T05:39:36.567Z,21.27
2023-12-09T05:42:05.762Z,24.98
2023-12-09T05:44:33.262Z,33.40
2023-12-09T05:47:00.724Z,30.55
2023-12-09T05:49:28.241Z,31.33
2023-12-09T05:51:57.108Z,31.13
2023-12-09T05:54:24.721Z,31.70
2023-12-09T05:56:52.282Z,28.70
2023-12-09T05:59:19.780Z,35.55
2023-12-09T06:01:47.240Z,36.10
2023-12-09T06:04:14.757Z,36.50
2023-12-09T06:06:42.284Z,31.58
2023-12-09T06:09:11.416Z,45.38
2023-12-09T06:11:38.912Z,31.20
2023-12-09T06:14:09.100Z,37.45
2023-12-09T06:16:36.554Z,40.25
2023-12-09T06:19:04.257Z,35.40
2023-12-09T06:21:31.875Z,36.63
2023-12-09T06:23:59.396Z,37.65
2023-12-09T06:26:28.227Z,33.75
2023-12-09T06:28:55.749Z,38.22
2023-12-09T06:31:23.308Z,40.95
2023-12-09T06:33:50.950Z,36.55
2023-12-09T06:36:18.518Z,37.60
2023-12-09T06:38:45.988Z,43.80
2023-12-09T06:41:13.461Z,42.53
2023-12-09T06:43:42.233Z,43.83
2023-12-09T06:46:09.734Z,46.97
2023-12-09T06:48:38.421Z,49.22
2023-12-09T06:51:08.189Z,46.75
2023-12-09T06:56:03.032Z,47.30
2023-12-09T06:58:30.568Z,42.63
2023-12-09T07:01:00.681Z,44.65
2023-12-09T07:03:28.388Z,44.78
2023-12-09T07:05:55.987Z,53.63
2023-12-09T07:08:23.477Z,55.55
2023-12-09T07:10:50.948Z,44.20
2023-12-09T07:13:18.402Z,55.33
2023-12-09T07:15:45.916Z,54.58
2023-12-09T07:18:17.359Z,46.50
2023-12-09T07:20:46.585Z,45.15
2023-12-09T07:23:15.353Z,55.88
2023-12-09T07:25:42.844Z,49.30
2023-12-09T07:28:10.258Z,51.03
2023-12-09T07:30:37.773Z,49.78
2023-12-09T07:33:05.500Z,54.83
2023-12-09T07:35:34.398Z,56.95
2023-12-09T07:38:01.939Z,57.08
2023-12-09T07:40:29.363Z,57.17
2023-12-09T07:42:56.826Z,44.15
2023-12-09T07:45:24.295Z,53.85
2023-12-09T07:47:52.038Z,52.40
2023-12-09T07:50:20.085Z,53.92
2023-12-09T07:52:48.958Z,57.53
2023-12-09T07:55:17.019Z,50.95
2023-12-09T07:57:44.498Z,59.80
2023-12-09T08:00:12.363Z,54.38
2023-12-09T08:02:40.029Z,51.67
2023-12-09T08:05:08.040Z,57.33
2023-12-09T08:07:35.527Z,59.72
2023-12-09T08:10:04.539Z,54.10
2023-12-09T08:12:32.458Z,49.58
2023-12-09T08:15:00.025Z,50.92
2023-12-09T08:17:27.811Z,50.50
2023-12-09T08:19:55.504Z,53.78
2023-12-09T08:22:23.042Z,54.15
2023-12-09T08:24:50.510Z,57.72
2023-12-09T08:27:20.005Z,51.88
2023-12-09T08:29:47.661Z,52.38
2023-12-09T08:32:15.381Z,52.15
2023-12-09T08:34:46.507Z,49.90
2023-12-09T08:37:26.152Z,48.42
2023-12-09T08:39:54.935Z,45.70
2023-12-09T08:42:24.099Z,55.40
2023-12-09T08:44:51.562Z,56.10
2023-12-09T08:47:19.166Z,56.30
2023-12-09T08:49:46.718Z,53.08
2023-12-09T08:52:14.230Z,54.90
2023-12-09T08:54:41.915Z,50.65
2023-12-09T08:57:11.848Z,44.53
2023-12-09T08:59:40.828Z,53.33
2023-12-09T09:02:08.485Z,47.38
2023-12-09T09:04:35.977Z,46.88
2023-12-09T09:07:03.433Z,49.08
2023-12-09T09:09:30.934Z,49.15
2023-12-09T09:11:58.413Z,43.53
2023-12-09T09:14:25.985Z,48.40
2023-12-09T09:16:54.801Z,48.17
2023-12-09T09:19:22.449Z,43.90
2023-12-09T09:21:49.967Z,41.45
2023-12-09T09:24:18.669Z,40.97
2023-12-09T09:26:46.153Z,47.47
2023-12-09T09:29:13.847Z,43.47
2023-12-09T09:31:41.289Z,42.60
2023-12-09T09:34:10.187Z,43.05
2023-12-09T09:36:37.742Z,43.58
2023-12-09T09:39:06.173Z,42.22
2023-12-09T09:41:36.042Z,37.13
2023-12-09T09:44:08.752Z,43.10
2023-12-09T09:46:36.616Z,33.95
2023-12-09T09:49:05.273Z,37.83
2023-12-09T09:51:34.448Z,38.93
2023-12-09T09:54:07.546Z,30.63
2023-12-09T09:56:35.777Z,41.63
2023-12-09T09:59:04.560Z,33.47
2023-12-09T10:01:32.361Z,34.30
2023-12-09T10:04:00.086Z,33.45
2023-12-09T10:06:28.127Z,36.92
2023-12-09T10:08:57.258Z,31.65
2023-12-09T10:11:24.780Z,29.02
2023-12-09T10:13:52.338Z,30.48
2023-12-09T10:16:19.962Z,28.98
2023-12-09T10:18:48.316Z,29.00
2023-12-09T10:21:16.314Z,31.08
2023-12-09T10:23:46.158Z,24.60
2023-12-09T10:26:15.937Z,33.42
2023-12-09T10:28:43.551Z,32.55
2023-12-09T10:31:11.791Z,31.70
2023-12-09T10:33:39.422Z,27.48
2023-12-09T10:36:07.807Z,39.60
2023-12-09T10:38:35.315Z,32.22
2023-12-09T10:41:06.026Z,26.73
2023-12-09T10:43:34.813Z,29.65
2023-12-09T10:46:02.269Z,30.00
2023-12-09T10:48:31.585Z,29.17
2023-12-09T10:50:59.218Z,23.17
2023-12-09T10:53:27.020Z,26.27
2023-12-09T10:55:54.547Z,30.20
2023-12-09T10:58:22.903Z,20.50
2023-12-09T11:00:52.801Z,22.05
2023-12-09T11:03:22.146Z,28.90
2023-12-09T11:05:52.512Z,23.02
2023-12-09T11:08:21.294Z,20.95
2023-12-09T11:10:49.577Z,21.63
2023-12-09T11:13:17.034Z,21.05
2023-12-09T11:15:44.606Z,21.17
2023-12-09T11:18:17.595Z,18.25
2023-12-09T11:20:47.210Z,15.75
2023-12-09T11:23:15.193Z,29.98
2023-12-09T11:25:44.702Z,16.77
2023-12-09T11:28:12.444Z,15.43
2023-12-09T11:30:42.047Z,14.88
2023-12-09T11:33:10.245Z,13.90
2023-12-09T11:35:39.548Z,17.25
2023-12-09T11:38:07.576Z,12.00
2023-12-09T11:40:35.517Z,14.38
2023-12-09T11:43:04.525Z,18.58
2023-12-09T11:45:32.140Z,16.88
2023-12-09T11:48:00.218Z,12.00
2023-12-09T11:50:29.384Z,15.38
2023-12-09T11:52:58.344Z,13.10
2023-12-09T11:55:25.941Z,13.43
2023-12-09T11:57:53.359Z,13.82
2023-12-09T12:00:20.954Z,12.50
2023-12-09T12:02:49.539Z,12.02
2023-12-09T12:05:17.395Z,13.73
2023-12-09T12:07:45.091Z,12.90
2023-12-09T12:10:15.767Z,11.35
2023-12-09T12:12:43.715Z,10.48
2023-12-09T12:15:11.950Z,14.63
2023-12-09T12:17:40.714Z,9.57
2023-12-09T12:20:09.406Z,9.30
2023-12-09T12:22:36.991Z,12.95
2023-12-09T12:25:05.337Z,8.60
2023-12-09T12:27:36.819Z,12.98
2023-12-09T12:30:05.143Z,13.57
2023-12-09T12:32:37.095Z,10.32
2023-12-09T12:35:05.000Z,5.75
2023-12-09T12:37:32.895Z,15.10
2023-12-09T12:40:00.429Z,8.70
2023-12-09T12:42:28.400Z,7.10
2023-12-09T12:44:57.513Z,13.95
2023-12-09T12:47:25.226Z,6.90
2023-12-09T12:49:53.078Z,12.70
2023-12-09T12:52:20.655Z,11.20
2023-12-09T12:54:48.673Z,9.57
2023-12-09T12:57:16.244Z,8.55
2023-12-09T12:59:44.429Z,9.00
2023-12-09T13:02:13.390Z,9.02
2023-12-09T13:04:40.973Z,8.50
2023-12-09T13:07:08.592Z,6.38
2023-12-09T13:09:36.877Z,9.95
2023-12-09T13:12:04.980Z,8.00
2023-12-09T13:14:32.623Z,7.90
2023-12-09T13:17:00.306Z,11.35
2023-12-09T13:19:29.282Z,9.05
2023-12-09T13:21:56.927Z,7.53
2023-12-09T13:24:24.582Z,6.80
2023-12-09T13:26:52.270Z,6.75
2023-12-09T13:29:19.811Z,7.80
2023-12-09T13:31:47.467Z,7.43
2023-12-09T13:34:15.081Z,7.50
2023-12-09T13:36:45.297Z,9.85
2023-12-09T13:39:15.306Z,6.75
2023-12-09T13:41:43.195Z,5.28
2023-12-09T13:44:11.059Z,7.00
2023-12-09T13:46:41.573Z,4.68
2023-12-09T13:49:09.320Z,5.50
2023-12-09T13:51:37.028Z,8.27
2023-12-09T13:54:06.049Z,6.05
2023-12-09T13:56:33.684Z,6.00
2023-12-09T13:59:01.265Z,5.38
2023-12-09T14:01:28.964Z,7.68
2023-12-09T14:03:56.796Z,5.22
2023-12-09T14:06:24.556Z,6.90
2023-12-09T14:08:52.193Z,5.03
2023-12-09T14:11:21.136Z,4.03
2023-12-09T14:13:48.699Z,7.30
2023-12-09T14:16:16.328Z,4.65
2023-12-09T14:18:44.018Z,5.85
2023-12-09T14:21:11.750Z,5.43
2023-12-09T14:23:39.313Z,3.40
2023-12-09T14:26:06.934Z,4.10
2023-12-09T14:28:35.953Z,4.10
2023-12-09T14:31:03.674Z,3.60
2023-12-09T14:33:31.447Z,3.05
2023-12-09T14:35:59.142Z,5.18
2023-12-09T14:38:26.709Z,4.22
2023-12-09T14:40:54.242Z,6.05
2023-12-09T14:43:22.230Z,9.60
2023-12-09T14:45:51.259Z,5.70
2023-12-09T14:48:19.214Z,4.35
2023-12-09T14:50:46.918Z,8.88
2023-12-09T14:53:15.372Z,4.63
2023-12-09T14:55:43.215Z,5.05
2023-12-09T14:58:10.978Z,3.80
2023-12-09T15:00:38.936Z,6.40
2023-12-09T15:03:07.937Z,5.50
2023-12-09T15:05:35.569Z,3.80
2023-12-09T15:08:03.946Z,4.03
2023-12-09T15:10:31.806Z,3.13
2023-12-09T15:13:00.981Z,3.95
2023-12-09T15:15:29.195Z,4.63
2023-12-09T15:17:57.004Z,1.92
2023-12-09T15:20:26.151Z,4.68
2023-12-09T15:22:53.716Z,3.17
2023-12-09T15:25:21.330Z,2.40
2023-12-09T15:27:49.065Z,3.78
2023-12-09T15:30:16.793Z,4.13
2023-12-09T15:32:45.439Z,2.22
2023-12-09T15:35:13.238Z,3.30
2023-12-09T15:37:42.157Z,2.72
2023-12-09T15:40:11.677Z,2.65
2023-12-09T15:42:39.584Z,2.05
2023-12-09T15:45:07.701Z,3.13
2023-12-09T15:47:35.360Z,2.47
2023-12-09T15:50:04.146Z,2.53
2023-12-09T15:52:31.997Z,2.43
2023-12-09T15:55:01.104Z,3.25
2023-12-09T15:57:28.726Z,3.20
2023-12-09T15:59:56.558Z,3.72
2023-12-09T16:02:24.295Z,2.60
2023-12-09T16:04:52.057Z,3.55
2023-12-09T16:07:21.273Z,4.00
2023-12-09T16:09:52.904Z,4.05
2023-12-09T16:12:27.096Z,4.95
2023-12-09T16:14:55.126Z,5.53
2023-12-09T16:17:22.971Z,4.97
2023-12-09T16:19:50.800Z,6.80
2023-12-09T16:22:18.469Z,4.93
2023-12-09T16:24:47.104Z,5.65
2023-12-09T16:27:15.754Z,4.40
2023-12-09T16:29:45.022Z,5.82
2023-12-09T16:32:12.674Z,5.68
2023-12-09T16:34:40.432Z,4.70
2023-12-09T16:37:08.044Z,5.43
2023-12-09T16:39:35.664Z,6.80
2023-12-09T16:42:03.696Z,6.45
2023-12-09T16:44:31.359Z,6.80
2023-12-09T16:47:00.353Z,7.15
2023-12-09T16:49:28.047Z,6.90
2023-12-09T16:51:55.725Z,6.32
2023-12-09T16:54:24.506Z,6.57
2023-12-09T16:56:52.415Z,7.35
2023-12-09T16:59:20.057Z,5.75
2023-12-09T17:01:48.203Z,4.97
2023-12-09T17:04:17.360Z,5.13
2023-12-09T17:06:45.232Z,4.65
2023-12-09T17:09:12.878Z,5.75
2023-12-09T17:11:40.622Z,4.80
2023-12-09T17:14:08.598Z,5.45
2023-12-09T17:16:36.265Z,5.40
2023-12-09T17:19:06.823Z,5.10
2023-12-09T17:21:35.901Z,4.85
2023-12-09T17:24:03.646Z,6.90
2023-12-09T17:26:31.268Z,6.55
2023-12-09T17:28:58.864Z,8.02
2023-12-09T17:31:26.760Z,7.63
2023-12-09T17:33:54.627Z,9.07
2023-12-09T17:36:24.146Z,14.40
2023-12-09T17:41:21.474Z,27.00
2023-12-09T17:43:49.620Z,36.85
2023-12-09T17:46:17.236Z,41.75
2023-12-09T17:48:45.028Z,42.10
2023-12-09T17:51:12.721Z,51.60
2023-12-09T17:53:40.312Z,54.47
2023-12-09T17:56:08.364Z,58.08
2023-12-09T17:58:38.736Z,37.15
2023-12-09T18:01:08.239Z,44.58
2023-12-09T18:03:36.003Z,35.00
2023-12-09T18:06:04.500Z,36.83
2023-12-09T18:08:34.219Z,42.35
2023-12-09T18:13:29.169Z,30.15
2023-12-09T18:15:58.200Z,37.00
2023-12-09T18:18:25.877Z,39.70
2023-12-09T18:20:53.576Z,44.75
2023-12-09T18:23:21.125Z,39.42
2023-12-09T18:25:48.741Z,30.77
2023-12-09T18:28:16.314Z,42.70
2023-12-09T18:30:43.925Z,39.20
2023-12-09T18:33:13.090Z,44.25
2023-12-09T18:35:40.813Z,33.30
2023-12-09T18:38:09.179Z,32.10
2023-12-09T18:40:36.805Z,34.03
2023-12-09T18:43:04.382Z,43.55
2023-12-09T18:45:31.996Z,28.95
2023-12-09T18:47:59.842Z,38.40
2023-12-09T18:50:28.804Z,38.03
2023-12-09T18:52:59.170Z,36.17
2023-12-09T18:55:26.766Z,28.85
2023-12-09T18:57:54.407Z,36.70
2023-12-09T19:00:22.119Z,36.97
2023-12-09T19:02:49.680Z,34.20
2023-12-09T19:05:17.310Z,36.15
2023-12-09T19:07:46.358Z,38.85
2023-12-09T19:10:13.878Z,36.58
2023-12-09T19:12:41.469Z,41.35
2023-12-09T19:15:09.590Z,37.22
2023-12-09T19:17:37.365Z,31.23
2023-12-09T19:20:05.448Z,30.25
2023-12-09T19:22:33.034Z,36.08
2023-12-09T19:25:01.956Z,33.08
2023-12-09T19:27:29.634Z,41.70
2023-12-09T19:29:57.192Z,34.65
2023-12-09T19:32:24.828Z,36.78
2023-12-09T19:34:54.144Z,30.98
2023-12-09T19:37:21.900Z,37.35
2023-12-09T19:39:49.994Z,31.77
2023-12-09T19:42:19.673Z,31.42
2023-12-09T19:44:47.432Z,37.22
2023-12-09T19:47:15.011Z,32.90
2023-12-09T19:49:43.668Z,30.35
2023-12-09T19:52:11.395Z,28.75
2023-12-09T19:54:39.770Z,30.05
2023-12-09T19:57:09.001Z,25.40
2023-12-09T19:59:37.960Z,28.25
2023-12-09T20:02:05.747Z,32.03
2023-12-09T20:04:33.473Z,33.55
2023-12-09T20:07:01.161Z,30.55
2023-12-09T20:09:28.742Z,26.38
2023-12-09T20:11:56.339Z,28.63
2023-12-09T20:14:23.929Z,31.13
2023-12-09T20:16:52.910Z,32.03
2023-12-09T20:19:22.837Z,24.42
2023-12-09T20:21:52.391Z,30.77
2023-12-09T20:24:20.448Z,30.67
2023-12-09T20:26:48.113Z,30.73
2023-12-09T20:29:15.676Z,27.65
2023-12-09T20:31:43.751Z,29.13
2023-12-09T20:34:13.357Z,28.05
2023-12-09T20:39:09.666Z,33.85
2023-12-09T20:41:37.273Z,27.83
2023-12-09T20:44:04.904Z,29.90
2023-12-09T20:46:32.585Z,30.60
2023-12-09T20:49:00.406Z,30.10
2023-12-09T20:51:30.415Z,22.48
2023-12-09T20:53:57.982Z,24.58
2023-12-09T20:56:25.718Z,27.80
2023-12-09T20:58:53.312Z,24.98
2023-12-09T21:01:21.053Z,20.63
2023-12-09T21:03:48.694Z,24.60
2023-12-09T21:06:16.339Z,22.15
2023-12-09T21:08:45.237Z,27.42
2023-12-09T21:11:14.809Z,25.45
2023-12-09T21:13:42.479Z,26.35
2023-12-09T21:16:10.558Z,27.90
2023-12-09T21:18:38.220Z,24.05
2023-12-09T21:21:06.195Z,22.10
2023-12-09T21:23:33.819Z,25.85
2023-12-09T21:26:02.801Z,24.67
2023-12-09T21:28:30.361Z,23.30
2023-12-09T21:30:58.010Z,24.13
2023-12-09T21:33:26.617Z,29.23
2023-12-09T21:35:54.305Z,29.00
2023-12-09T21:38:21.918Z,27.08
2023-12-09T21:40:49.488Z,27.13
2023-12-09T21:43:18.713Z,23.88
2023-12-09T21:45:46.253Z,20.98
2023-12-09T21:48:15.799Z,25.48
2023-12-09T21:53:10.812Z,27.23
2023-12-09T21:55:38.411Z,27.05
2023-12-09T21:58:05.943Z,24.27
2023-12-09T22:00:34.926Z,31.20
2023-12-09T22:03:02.543Z,28.33
2023-12-09T22:05:30.123Z,20.58
2023-12-09T22:07:57.724Z,25.73
2023-12-09T22:10:25.317Z,27.17
2023-12-09T22:12:52.925Z,27.58
2023-12-09T22:15:21.102Z,22.85
2023-12-09T22:17:50.248Z,28.33
2023-12-09T22:20:17.844Z,25.55
2023-12-09T22:22:51.690Z,26.98
2023-12-09T22:25:22.526Z,31.08
2023-12-09T22:27:50.215Z,30.42
2023-12-09T22:30:18.237Z,26.63
2023-12-09T22:32:45.877Z,25.60
2023-12-09T22:35:14.987Z,22.88
2023-12-09T22:37:42.889Z,29.30
2023-12-09T22:40:11.109Z,26.33
2023-12-09T22:42:38.915Z,32.92
2023-12-09T22:45:07.977Z,23.42
2023-12-09T22:47:35.901Z,31.95
2023-12-09T22:50:03.736Z,24.95
2023-12-09T22:52:32.788Z,23.25
2023-12-09T22:55:00.387Z,25.23
2023-12-09T22:57:28.854Z,26.45
2023-12-09T22:59:56.469Z,27.20
2023-12-09T23:02:24.190Z,27.45
2023-12-09T23:04:51.781Z,28.17
2023-12-09T23:07:19.359Z,21.27
2023-12-09T23:09:48.338Z,27.92
2023-12-09T23:12:16.168Z,24.42
2023-12-09T23:14:43.802Z,22.55
2023-12-09T23:17:11.448Z,28.83
2023-12-09T23:19:39.135Z,29.63
2023-12-09T23:22:06.752Z,32.78
2023-12-09T23:24:35.493Z,31.67
2023-12-09T23:27:04.696Z,29.15
2023-12-09T23:29:32.269Z,36.97
2023-12-09T23:32:00.027Z,29.58
2023-12-09T23:34:27.801Z,35.40
2023-12-09T23:36:56.416Z,33.03
2023-12-09T23:39:24.157Z,35.20
2023-12-09T23:41:52.228Z,37.60
2023-12-09T23:44:22.486Z,33.03
2023-12-09T23:46:50.076Z,30.35
2023-12-09T23:49:17.759Z,35.67
2023-12-09T23:51:45.411Z,29.42
2023-12-09T23:54:13.031Z,23.85
2023-12-09T23:56:41.738Z,32.17
2023-12-09T23:59:09.345Z,44.73
